Sheffield, TX

2:20 PM CDT on May 22, 2015 (GMT -0500)
Sonora | | Change Station
CLOSE
Current Station
Airport
Location: Sonora,
Elevation: 2139 ft
Nearby Weather Stations

Elev 2139 ft 30.59 °N, 100.65 °W | Updated 25 minutes ago

Mostly Cloudy
Mostly Cloudy
75 °F
Feels Like 75 °F
N
13
Wind Variable Wind from SSE

Today
High -- | Low -- °F
--% Chance of Precip.
Yesterday
High -- | Low -- °F
Precip. -- in
6:48 AM 8:39 PM
Waxing Crescent, 23% visible
Pressure 30.13 in
Visibility 10.0 miles
Clouds Scattered Clouds 1700 ft
Mostly Cloudy 2500 ft
Overcast 3600 ft
Dew Point 66 °F
Humidity 73%
Rainfall 0.00 in
Snow Depth Not available.
UV 4 out of 12
Pollen 3.10 out of 12
Air Quality Not available.
Flu Activity Sporadic
METAR KSOA 221855Z AUTO 16011KT 10SM SCT017 BKN025 OVC036 24/19 A3013 RMK AO2

More Conditions Fewer Conditions

Pressure 30.13 in
Visibility 10.0 miles
Clouds Scattered Clouds 1700 ft
Mostly Cloudy 2500 ft
Overcast 3600 ft
Dew Point 66 °F
Humidity 73%
Rainfall 0.00 in
Snow Depth Not available.
UV 4 out of 12
Pollen 3.10 out of 12
Air Quality Not available.
Flu Activity Sporadic
METAR KSOA 221855Z AUTO 16011KT 10SM SCT017 BKN025 OVC036 24/19 A3013 RMK AO2

More Conditions Fewer Conditions

10-Day Weather Forecast

Almanac

Astronomy

May. 22, 2015 Rise Set
Actual Time
Civil Twilight
Nautical Twilight
Astronomical Twilight
Moon
Length of Visible Light
Length of Day
Tomorrow will be .
, % of the Moon is Illuminated

Today's Extremes

State Highs State Lows

Community

WunderPhotos

Upload Photos

1,823,279 photos uploaded!

WunderBlogs® & News

Nearby

Air Quality

  Air Quality AQ Index Pollutant
Not available.

Snow Depth

Station Depth Elevation

Earthquake Activity

City Distance Mag. Time & Date
Minimum magnitude displayed is 2.5.

Coastal Water Temperatures

Place Temperature

Stations

Nearby Weather Stations

Station Location Temp. Windchill Dew Point Humidity Wind Precip. Elev Updated Type